Time;durP1;ratioP1;P1;durP2;ratioP2;P2;SDS_P1;SDS_P2;PMS_P1;PMS_P2;Temp;Humidity;BMP_temperature;BMP_pressure;BME280_temperature;BME280_humidity;BME280_pressure;Samples;Min_cycle;Max_cycle;Signal;HPM_P1;HPM_P2
2021/12/22 00:01:27;;;;;;;64.32;42.90;;;-4.00;99.90;;;;;;5086748;28;20044;-71
2021/12/22 00:03:54;;;;;;;64.43;40.93;;;-4.00;99.90;;;;;;5067317;28;20131;-70
2021/12/22 00:06:22;;;;;;;88.47;50.83;;;-4.00;99.90;;;;;;5054826;28;20050;-70
2021/12/22 00:08:48;;;;;;;81.50;47.85;;;-4.00;99.90;;;;;;5085395;28;20093;-70
2021/12/22 00:11:14;;;;;;;86.73;49.83;;;-4.00;99.90;;;;;;5065983;28;20059;-70
2021/12/22 00:13:40;;;;;;;69.30;45.17;;;-4.00;99.90;;;;;;5060871;28;20041;-70
2021/12/22 00:16:07;;;;;;;74.60;45.83;;;-4.00;99.90;;;;;;5065412;28;20878;-70
2021/12/22 00:18:34;;;;;;;66.37;43.17;;;-4.00;99.90;;;;;;5068800;28;20561;-70
2021/12/22 00:21:00;;;;;;;61.20;40.07;;;-4.00;99.90;;;;;;5065795;28;20094;-70
2021/12/22 00:23:26;;;;;;;65.57;39.83;;;-4.10;99.90;;;;;;5061876;28;20066;-71
2021/12/22 00:25:52;;;;;;;64.17;41.07;;;-4.10;99.90;;;;;;5069852;28;20051;-71
2021/12/22 00:28:18;;;;;;;60.80;40.00;;;-4.20;99.90;;;;;;5063903;28;20429;-71
2021/12/22 00:30:44;;;;;;;65.33;40.73;;;-4.20;99.90;;;;;;5079335;28;20051;-71
2021/12/22 00:33:11;;;;;;;66.03;39.20;;;-4.20;99.90;;;;;;5085998;28;20040;-71
2021/12/22 00:35:40;;;;;;;70.57;42.80;;;-4.20;99.90;;;;;;5078212;28;20417;-71
2021/12/22 00:38:07;;;;;;;64.15;41.10;;;-4.20;99.90;;;;;;5085755;28;20048;-71
2021/12/22 00:40:33;;;;;;;63.57;40.07;;;-4.30;99.90;;;;;;5079086;28;20051;-70
2021/12/22 00:42:59;;;;;;;65.10;40.97;;;-4.30;99.90;;;;;;5080730;28;20041;-71
2021/12/22 00:45:27;;;;;;;73.13;46.53;;;-4.30;99.90;;;;;;5069125;28;20056;-71
2021/12/22 00:47:54;;;;;;;74.35;46.40;;;-4.30;99.90;;;;;;5064553;28;20668;-70
2021/12/22 00:50:19;;;;;;;72.10;46.43;;;-4.30;99.90;;;;;;5060196;28;20036;-71
2021/12/22 00:52:45;;;;;;;86.90;53.97;;;-4.30;99.90;;;;;;5087266;28;20054;-70
2021/12/22 00:55:14;;;;;;;89.60;56.97;;;-4.30;99.90;;;;;;5059838;28;20056;-70
2021/12/22 00:57:39;;;;;;;82.18;55.00;;;-4.30;99.90;;;;;;5064031;28;20059;-71
2021/12/22 01:00:07;;;;;;;90.73;59.53;;;-4.20;99.90;;;;;;5081081;28;20035;-70
2021/12/22 01:02:33;;;;;;;93.22;54.38;;;-4.30;99.90;;;;;;5078725;28;20519;-71
2021/12/22 01:04:59;;;;;;;82.30;52.50;;;-4.20;99.90;;;;;;5086825;28;20056;-70
2021/12/22 01:07:24;;;;;;;86.50;49.00;;;-4.20;99.90;;;;;;5065014;28;20086;-70
2021/12/22 01:09:50;;;;;;;84.13;48.73;;;-4.30;99.90;;;;;;5065364;28;20051;-70
2021/12/22 01:12:16;;;;;;;80.37;46.00;;;-4.30;99.90;;;;;;5060145;28;20636;-70
2021/12/22 01:14:42;;;;;;;69.10;45.63;;;-4.30;99.90;;;;;;5059843;28;20048;-70
2021/12/22 01:17:11;;;;;;;70.70;43.13;;;-4.30;99.90;;;;;;5085850;28;20044;-70
2021/12/22 01:19:47;;;;;;;64.40;41.67;;;-4.30;99.90;;;;;;5067735;28;20052;-71
2021/12/22 01:24:48;;;;;;;56.53;38.70;;;-4.30;99.90;;;;;;5080507;28;20046;-70
2021/12/22 01:27:19;;;;;;;63.40;37.97;;;-4.30;99.90;;;;;;5085885;28;20560;-70
2021/12/22 01:29:44;;;;;;;67.47;40.10;;;-4.40;99.90;;;;;;5063875;28;20060;-71
2021/12/22 01:32:12;;;;;;;66.03;40.27;;;-4.40;99.90;;;;;;5067897;28;20044;-71
2021/12/22 01:34:38;;;;;;;55.07;35.07;;;-4.40;99.90;;;;;;5068050;28;20055;-71
2021/12/22 01:37:03;;;;;;;70.03;41.23;;;-4.40;99.90;;;;;;5083821;28;20406;-70
2021/12/22 01:39:29;;;;;;;57.17;37.80;;;-4.40;99.90;;;;;;5066239;28;20493;-71
2021/12/22 01:41:55;;;;;;;62.33;37.27;;;-4.40;99.90;;;;;;5063644;28;20115;-71
2021/12/22 01:44:49;;;;;;;56.80;37.27;;;-4.40;99.90;;;;;;5081572;28;20063;-70
2021/12/22 01:50:03;;;;;;;64.00;38.60;;;-4.40;99.90;;;;;;5062188;28;20055;-71
2021/12/22 01:52:29;;;;;;;55.70;35.07;;;-4.40;99.90;;;;;;5064373;28;20056;-71
2021/12/22 01:55:07;;;;;;;52.90;33.33;;;-4.50;99.90;;;;;;5081005;28;20047;-71
2021/12/22 01:57:42;;;;;;;59.40;35.78;;;-4.50;99.90;;;;;;5060656;28;20075;-70
2021/12/22 02:00:08;;;;;;;59.43;36.50;;;-4.50;99.90;;;;;;5059694;28;20044;-70
2021/12/22 02:02:34;;;;;;;55.07;34.97;;;-4.50;99.90;;;;;;5063502;28;20049;-70
2021/12/22 02:04:59;;;;;;;57.13;35.67;;;-4.60;99.90;;;;;;5061895;28;20036;-71
2021/12/22 02:07:25;;;;;;;61.90;39.23;;;-4.60;99.90;;;;;;5064523;28;20152;-71
2021/12/22 02:10:04;;;;;;;55.33;35.03;;;-4.50;99.90;;;;;;5060150;28;20755;-71
2021/12/22 02:12:35;;;;;;;56.43;36.77;;;-4.50;99.90;;;;;;5062492;28;20060;-71
2021/12/22 02:15:04;;;;;;;59.50;34.73;;;-4.50;99.90;;;;;;5084422;28;20040;-71
2021/12/22 02:17:29;;;;;;;;;;;-4.60;99.90;;;;;;5086440;28;20114;-71
2021/12/22 02:19:55;;;;;;;56.03;36.77;;;-4.70;99.90;;;;;;5070312;28;20401;-70
2021/12/22 02:22:21;;;;;;;53.37;33.83;;;-4.70;99.90;;;;;;5069276;28;20052;-71
2021/12/22 02:24:54;;;;;;;54.63;35.70;;;-4.70;99.90;;;;;;5071078;28;20036;-71
2021/12/22 02:27:29;;;;;;;57.97;36.57;;;-4.70;99.90;;;;;;5089569;28;20412;-71
2021/12/22 02:30:00;;;;;;;51.07;34.17;;;-4.60;99.90;;;;;;5086999;28;20056;-71
2021/12/22 02:34:55;;;;;;;66.17;37.63;;;-4.60;99.90;;;;;;5088447;28;20056;-71
2021/12/22 02:37:25;;;;;;;53.72;35.75;;;-4.60;99.90;;;;;;5066472;28;20324;-71
2021/12/22 02:39:58;;;;;;;63.40;36.77;;;-4.60;99.90;;;;;;5088480;28;20408;-71
2021/12/22 02:42:31;;;;;;;53.20;35.33;;;-4.70;99.90;;;;;;5059255;28;20050;-70
2021/12/22 02:45:08;;;;;;;53.93;35.67;;;-4.70;99.90;;;;;;5065567;28;20102;-70
2021/12/22 02:47:34;;;;;;;54.87;34.80;;;-4.70;99.90;;;;;;5071893;28;20044;-71
2021/12/22 02:50:00;;;;;;;50.40;34.83;;;-4.70;99.90;;;;;;5086223;28;20101;-71
2021/12/22 02:52:32;;;;;;;55.33;35.53;;;-4.80;99.90;;;;;;5064967;28;20048;-71
2021/12/22 02:54:59;;;;;;;57.93;35.27;;;-4.80;99.90;;;;;;5071628;28;20048;-71
2021/12/22 02:57:32;;;;;;;59.40;34.80;;;-4.80;99.90;;;;;;5072188;28;20052;-71
2021/12/22 03:02:56;;;;;;;55.33;33.90;;;-4.90;99.90;;;;;;5066987;28;20560;-70
2021/12/22 03:05:28;;;;;;;58.80;35.37;;;-4.90;99.90;;;;;;5064855;28;20055;-71
2021/12/22 03:07:54;;;;;;;52.80;31.83;;;-5.00;99.90;;;;;;5076577;28;20054;-71
2021/12/22 03:10:20;;;;;;;55.83;34.40;;;-5.00;99.90;;;;;;5069228;28;20098;-71
2021/12/22 03:12:52;;;;;;;54.80;34.03;;;-5.00;99.90;;;;;;5064675;28;20044;-71
2021/12/22 03:15:18;;;;;;;55.97;35.87;;;-5.00;99.90;;;;;;5066146;28;20495;-71
2021/12/22 03:17:48;;;;;;;52.00;36.23;;;-5.00;99.90;;;;;;5083651;28;20101;-71
2021/12/22 03:20:15;;;;;;;59.73;36.53;;;-5.00;99.90;;;;;;5072443;28;20408;-70
2021/12/22 03:22:43;;;;;;;55.27;35.80;;;-5.00;99.90;;;;;;5064700;28;20056;-71
2021/12/22 03:25:17;;;;;;;58.87;35.53;;;-5.00;99.90;;;;;;5065876;28;20044;-71
2021/12/22 03:27:45;;;;;;;56.87;34.93;;;-5.00;99.90;;;;;;5083478;28;20991;-70
2021/12/22 03:30:14;;;;;;;57.40;34.00;;;-5.10;99.90;;;;;;5087490;28;20142;-70
2021/12/22 03:32:40;;;;;;;55.33;34.20;;;-5.10;99.90;;;;;;5065862;28;20057;-71
2021/12/22 03:35:07;;;;;;;52.90;34.37;;;-5.10;99.90;;;;;;5060738;28;20049;-71
2021/12/22 03:37:33;;;;;;;52.27;34.83;;;-5.10;99.90;;;;;;5067149;28;20071;-71
2021/12/22 03:39:59;;;;;;;54.70;33.53;;;-5.20;99.90;;;;;;5070830;28;20075;-70
2021/12/22 03:42:24;;;;;;;48.20;33.20;;;-5.10;99.90;;;;;;5088157;28;20062;-71
2021/12/22 03:44:50;;;;;;;53.17;34.43;;;-5.20;99.90;;;;;;5064963;28;20725;-71
2021/12/22 03:47:16;;;;;;;48.80;33.57;;;-5.20;99.90;;;;;;5080773;28;20417;-71
2021/12/22 03:49:41;;;;;;;51.47;33.57;;;-5.20;99.90;;;;;;5072075;28;20413;-71
2021/12/22 03:52:07;;;;;;;56.30;34.30;;;-5.30;99.90;;;;;;5069102;28;20040;-71
2021/12/22 03:54:33;;;;;;;53.37;34.33;;;-5.30;99.90;;;;;;5066567;28;20392;-71
2021/12/22 03:56:59;;;;;;;49.23;34.27;;;-5.30;99.90;;;;;;5063263;28;20047;-71
2021/12/22 03:59:25;;;;;;;49.87;33.17;;;-5.30;99.90;;;;;;5084260;28;20130;-71
2021/12/22 04:01:52;;;;;;;47.83;32.90;;;-5.30;99.90;;;;;;5088351;28;20067;-70
2021/12/22 04:04:18;;;;;;;51.27;33.57;;;-5.30;99.90;;;;;;5086015;28;20097;-70
2021/12/22 04:06:49;;;;;;;54.20;34.13;;;-5.30;99.90;;;;;;5083310;28;20052;-71
2021/12/22 04:09:16;;;;;;;51.53;32.90;;;-5.30;99.90;;;;;;5071411;28;20048;-70
2021/12/22 04:11:43;;;;;;;53.87;32.60;;;-5.40;99.90;;;;;;5061694;28;20044;-70
2021/12/22 04:14:09;;;;;;;48.50;32.07;;;-5.40;99.90;;;;;;5068189;28;20040;-71
2021/12/22 04:16:35;;;;;;;50.97;33.57;;;-5.40;99.90;;;;;;5070235;28;20114;-71
2021/12/22 04:19:01;;;;;;;49.83;34.07;;;-5.40;99.90;;;;;;5066025;28;20045;-70
2021/12/22 04:21:26;;;;;;;50.77;32.83;;;-5.40;99.90;;;;;;5062109;28;20062;-70
2021/12/22 04:23:52;;;;;;;48.30;32.40;;;-5.40;99.90;;;;;;5067881;28;20046;-70
2021/12/22 04:26:17;;;;;;;46.27;31.10;;;-5.40;99.90;;;;;;5066377;28;20051;-71
2021/12/22 04:28:43;;;;;;;53.47;33.93;;;-5.50;99.90;;;;;;5066236;28;20104;-70
2021/12/22 04:31:09;;;;;;;56.17;34.23;;;-5.50;99.90;;;;;;5063373;28;20056;-70
2021/12/22 04:33:35;;;;;;;51.23;33.53;;;-5.50;99.90;;;;;;5069236;28;20035;-70
2021/12/22 04:36:01;;;;;;;52.10;33.13;;;-5.50;99.90;;;;;;5075819;28;20501;-70
2021/12/22 04:38:27;;;;;;;47.37;32.23;;;-5.50;99.90;;;;;;5084892;28;20561;-70
2021/12/22 04:40:52;;;;;;;48.43;33.60;;;-5.50;99.90;;;;;;5084343;28;20047;-70
2021/12/22 04:43:18;;;;;;;50.37;33.47;;;-5.50;99.90;;;;;;5060654;28;20058;-70
2021/12/22 04:45:44;;;;;;;50.47;32.17;;;-5.50;99.90;;;;;;5066689;28;20044;-70
2021/12/22 04:48:10;;;;;;;50.83;33.50;;;-5.60;99.90;;;;;;5070679;28;20044;-70
2021/12/22 04:50:36;;;;;;;51.63;33.77;;;-5.60;99.90;;;;;;5070417;28;20580;-71
2021/12/22 04:53:47;;;;;;;49.60;33.80;;;-5.60;99.90;;;;;;5066121;28;20810;-71
2021/12/22 04:55:56;;;;;;;48.33;32.13;;;-5.60;99.90;;;;;;5065466;28;20059;-70
2021/12/22 04:58:22;;;;;;;52.97;33.63;;;-5.60;99.90;;;;;;5058437;28;20048;-70
2021/12/22 05:00:47;;;;;;;52.93;32.33;;;-5.70;99.90;;;;;;5077534;28;20047;-70
2021/12/22 05:03:13;;;;;;;54.60;34.43;;;-5.70;99.90;;;;;;5087794;28;20056;-71
2021/12/22 05:05:39;;;;;;;54.57;33.23;;;-5.60;99.90;;;;;;5065220;28;20062;-71
2021/12/22 05:08:04;;;;;;;55.83;35.53;;;-5.70;99.90;;;;;;5057343;28;20404;-70
2021/12/22 05:10:30;;;;;;;54.17;34.13;;;-5.70;99.90;;;;;;5059371;28;20086;-70
2021/12/22 05:12:56;;;;;;;55.80;34.47;;;-5.70;99.90;;;;;;5088167;28;20119;-70
2021/12/22 05:15:23;;;;;;;52.60;35.80;;;-5.70;99.90;;;;;;5064786;28;20569;-70
2021/12/22 05:20:20;;;;;;;55.97;34.43;;;-5.70;99.90;;;;;;5088625;28;20052;-70
2021/12/22 05:22:45;;;;;;;55.50;35.43;;;-5.70;99.90;;;;;;5067495;28;20054;-70
2021/12/22 05:25:11;;;;;;;54.40;34.17;;;-5.70;99.90;;;;;;5063095;28;20040;-70
2021/12/22 05:27:38;;;;;;;56.87;34.77;;;-5.80;99.90;;;;;;5062284;28;20052;-70
2021/12/22 05:30:05;;;;;;;51.40;35.33;;;-5.80;99.90;;;;;;5059955;28;20405;-70
2021/12/22 05:32:32;;;;;;;54.40;34.47;;;-5.80;99.90;;;;;;5063466;28;20053;-70
2021/12/22 05:34:59;;;;;;;57.67;36.80;;;-5.80;99.90;;;;;;5061674;28;20044;-70
2021/12/22 05:37:25;;;;;;;54.33;33.97;;;-5.80;99.90;;;;;;5059482;28;20391;-70
2021/12/22 05:39:52;;;;;;;52.70;35.57;;;-5.80;99.90;;;;;;5063682;28;20064;-70
2021/12/22 05:42:19;;;;;;;58.00;36.30;;;-5.80;99.90;;;;;;5059152;28;20060;-70
2021/12/22 05:44:45;;;;;;;51.37;35.47;;;-5.80;99.90;;;;;;5063123;28;20044;-70
2021/12/22 05:47:10;;;;;;;53.17;36.27;;;-5.80;99.90;;;;;;5060445;28;20044;-70
2021/12/22 05:49:36;;;;;;;49.40;35.43;;;-5.80;99.90;;;;;;5043028;28;20361;-70
2021/12/22 05:52:03;;;;;;;52.83;34.30;;;-5.80;99.90;;;;;;5061356;28;20628;-70
2021/12/22 05:54:28;;;;;;;13.13;7.53;;;-5.80;99.90;;;;;;5058962;28;20046;-70
2021/12/22 05:56:54;;;;;;;61.47;36.70;;;-5.90;99.90;;;;;;5063399;28;20049;-70
2021/12/22 05:59:20;;;;;;;57.73;36.43;;;-5.90;99.90;;;;;;5066253;28;20170;-70
2021/12/22 06:01:45;;;;;;;55.30;36.27;;;-5.80;99.90;;;;;;5056959;28;20071;-70
2021/12/22 06:04:11;;;;;;;57.40;37.67;;;-5.80;99.90;;;;;;5055739;28;20040;-70
2021/12/22 06:06:37;;;;;;;57.27;35.97;;;-5.80;99.90;;;;;;5056723;28;20126;-70
2021/12/22 06:09:03;;;;;;;63.77;39.37;;;-5.80;99.90;;;;;;5064436;28;20420;-70
2021/12/22 06:11:29;;;;;;;59.03;39.77;;;-5.80;99.90;;;;;;5059220;28;20398;-70
2021/12/22 06:13:55;;;;;;;60.33;40.37;;;-5.80;99.90;;;;;;5056523;28;20037;-70
2021/12/22 06:16:22;;;;;;;59.27;40.53;;;-5.80;99.90;;;;;;5059642;28;20059;-70
2021/12/22 06:18:54;;;;;;;63.43;43.07;;;-5.80;99.90;;;;;;5060744;28;20059;-70
2021/12/22 06:21:20;;;;;;;62.33;41.47;;;-5.80;99.90;;;;;;5058428;28;20106;-70
2021/12/22 06:23:45;;;;;;;58.00;41.37;;;-5.80;99.90;;;;;;5064406;28;20710;-70
2021/12/22 06:26:12;;;;;;;66.47;42.07;;;-5.70;99.90;;;;;;5065727;28;20453;-70
2021/12/22 06:28:38;;;;;;;54.80;38.87;;;-5.80;99.90;;;;;;5058081;28;20501;-70
2021/12/22 06:31:03;;;;;;;58.47;38.73;;;-5.80;99.90;;;;;;5060467;28;20053;-70
2021/12/22 06:33:29;;;;;;;61.50;38.07;;;-5.80;99.90;;;;;;5056487;28;20048;-70
2021/12/22 06:35:55;;;;;;;64.93;38.30;;;-5.80;99.90;;;;;;5061763;28;20555;-70
2021/12/22 06:38:20;;;;;;;61.83;39.47;;;-5.80;99.90;;;;;;5062239;28;20578;-70
2021/12/22 06:40:46;;;;;;;67.07;40.10;;;-5.80;99.90;;;;;;5058824;28;20405;-70
2021/12/22 06:43:14;;;;;;;58.33;39.27;;;-5.80;99.90;;;;;;5057195;28;20053;-70
2021/12/22 06:45:40;;;;;;;58.38;38.30;;;-5.80;99.90;;;;;;5060565;28;20049;-70
2021/12/22 06:48:06;;;;;;;57.43;38.27;;;-5.80;99.90;;;;;;5054062;28;20052;-70
2021/12/22 06:50:33;;;;;;;65.00;39.97;;;-5.80;99.90;;;;;;5059791;28;20509;-70
2021/12/22 06:52:58;;;;;;;67.80;41.37;;;-5.80;99.90;;;;;;5060601;28;20047;-70
2021/12/22 06:55:25;;;;;;;64.20;40.87;;;-5.80;99.90;;;;;;5062050;28;20041;-70
2021/12/22 06:57:51;;;;;;;66.20;40.17;;;-5.80;99.90;;;;;;5056451;28;20049;-70
2021/12/22 07:00:16;;;;;;;59.50;38.47;;;-5.80;99.90;;;;;;5063411;28;20048;-70
2021/12/22 07:02:42;;;;;;;71.70;42.20;;;-5.80;99.90;;;;;;5059825;28;20057;-70
2021/12/22 07:05:10;;;;;;;69.40;40.57;;;-5.90;99.90;;;;;;5045357;28;20040;-70
2021/12/22 07:07:37;;;;;;;67.93;40.33;;;-5.80;99.90;;;;;;5047007;28;20036;-70
2021/12/22 07:10:07;;;;;;;65.60;40.40;;;-5.80;99.90;;;;;;5066226;28;20076;-70
2021/12/22 07:12:34;;;;;;;67.33;40.67;;;-5.80;99.90;;;;;;5063702;28;20052;-70
2021/12/22 07:15:01;;;;;;;57.43;37.03;;;-5.80;99.90;;;;;;5064591;28;20119;-70
2021/12/22 07:17:26;;;;;;;63.53;42.77;;;-5.80;99.90;;;;;;5057021;28;20382;-70
2021/12/22 07:19:52;;;;;;;59.57;38.63;;;-5.80;99.90;;;;;;5064661;28;20174;-70
2021/12/22 07:22:18;;;;;;;65.80;40.50;;;-5.80;99.90;;;;;;5045327;28;20076;-70
2021/12/22 07:24:43;;;;;;;64.93;41.37;;;-5.80;99.90;;;;;;5063072;28;20036;-70
2021/12/22 07:27:09;;;;;;;69.77;41.07;;;-5.80;99.90;;;;;;5063218;28;20826;-70
2021/12/22 07:29:34;;;;;;;73.30;41.77;;;-5.80;99.90;;;;;;5063242;28;20052;-70
2021/12/22 07:32:00;;;;;;;67.20;40.83;;;-5.80;99.90;;;;;;5061205;28;20556;-70
2021/12/22 07:34:38;;;;;;;61.77;39.97;;;-5.80;99.90;;;;;;5058556;28;20471;-70
2021/12/22 07:37:18;;;;;;;65.83;40.67;;;-5.80;99.90;;;;;;5059524;28;20098;-70
2021/12/22 07:39:44;;;;;;;65.80;40.57;;;-5.80;99.90;;;;;;5076230;28;20049;-70
2021/12/22 07:42:09;;;;;;;66.47;41.10;;;-5.80;99.90;;;;;;5065107;28;20055;-70
2021/12/22 07:44:35;;;;;;;73.17;40.90;;;-5.80;99.90;;;;;;5062605;28;20052;-70
2021/12/22 07:47:01;;;;;;;64.07;39.40;;;-5.80;99.90;;;;;;5062049;28;20119;-70
2021/12/22 07:49:26;;;;;;;72.40;41.47;;;-5.80;99.90;;;;;;5065992;28;20501;-70
2021/12/22 07:51:52;;;;;;;66.50;40.57;;;-5.80;99.90;;;;;;5062497;28;20059;-70
2021/12/22 07:54:18;;;;;;;68.83;41.47;;;-5.70;99.90;;;;;;5064262;28;20511;-70
2021/12/22 07:56:44;;;;;;;72.30;42.63;;;-5.70;99.90;;;;;;5065198;28;20041;-70
2021/12/22 07:59:09;;;;;;;63.87;41.80;;;-5.70;99.90;;;;;;5060469;28;20056;-70
2021/12/22 08:01:35;;;;;;;71.73;41.97;;;-5.70;99.90;;;;;;5062211;28;20468;-70
2021/12/22 08:04:01;;;;;;;75.67;48.07;;;-5.70;99.90;;;;;;5065723;28;20059;-70
2021/12/22 08:06:26;;;;;;;70.50;45.00;;;-5.60;99.90;;;;;;5064878;28;20044;-70
2021/12/22 08:08:52;;;;;;;78.77;44.20;;;-5.60;99.90;;;;;;5062372;28;20036;-70
2021/12/22 08:11:21;;;;;;;66.03;44.93;;;-5.60;99.90;;;;;;5063381;28;20040;-70
2021/12/22 08:13:46;;;;;;;75.18;43.60;;;-5.60;99.90;;;;;;5064312;28;20041;-70
2021/12/22 08:16:12;;;;;;;71.67;43.47;;;-5.50;99.90;;;;;;5065462;28;20049;-70
2021/12/22 08:18:37;;;;;;;65.77;41.87;;;-5.50;99.90;;;;;;5063794;28;20410;-70
2021/12/22 08:21:03;;;;;;;78.77;46.17;;;-5.40;99.90;;;;;;5067267;28;20072;-70
2021/12/22 08:23:29;;;;;;;75.80;44.33;;;-5.40;99.90;;;;;;5063342;28;20042;-70
2021/12/22 08:25:55;;;;;;;72.10;44.93;;;-5.30;99.90;;;;;;5058804;28;20052;-70
2021/12/22 08:28:21;;;;;;;65.77;40.77;;;-5.30;99.90;;;;;;5085919;28;20082;-69
2021/12/22 08:30:47;;;;;;;73.17;44.40;;;-5.30;99.90;;;;;;5065126;28;20044;-70
2021/12/22 08:33:20;;;;;;;68.53;44.17;;;-5.20;99.90;;;;;;5064935;28;20386;-70
2021/12/22 08:38:50;;;;;;;;;;;-5.00;99.90;;;;;;5056119;28;20088;-70
2021/12/22 08:41:29;;;;;;;77.20;44.17;;;-4.90;99.90;;;;;;5065825;28;19931;-70
2021/12/22 08:43:56;;;;;;;;;;;-4.80;99.90;;;;;;5065583;28;20047;-70
2021/12/22 08:46:23;;;;;;;69.93;41.60;;;-4.80;99.90;;;;;;5084168;28;19924;-70
2021/12/22 08:48:48;;;;;;;72.67;43.70;;;-4.70;99.90;;;;;;5065733;28;20109;-70
2021/12/22 08:51:14;;;;;;;71.10;41.27;;;-4.60;99.90;;;;;;5082941;28;20572;-70
2021/12/22 08:53:41;;;;;;;69.73;41.93;;;-4.50;99.90;;;;;;5065288;28;20178;-70
2021/12/22 08:56:07;;;;;;;78.40;43.57;;;-4.40;99.90;;;;;;5079219;28;20059;-70
2021/12/22 08:58:33;;;;;;;73.03;42.87;;;-4.40;99.90;;;;;;5053652;28;20044;-70
2021/12/22 09:00:59;;;;;;;66.70;42.77;;;-4.30;99.90;;;;;;5082397;28;20040;-70
2021/12/22 09:03:25;;;;;;;76.70;46.47;;;-4.20;99.90;;;;;;5067775;28;20481;-70
2021/12/22 09:05:51;;;;;;;77.50;47.00;;;-4.20;99.90;;;;;;5058134;28;20155;-69
2021/12/22 09:08:16;;;;;;;78.67;45.53;;;-4.10;99.90;;;;;;5064761;28;20093;-70
2021/12/22 09:10:42;;;;;;;75.43;45.63;;;-4.00;99.90;;;;;;5077089;28;20523;-70
2021/12/22 09:13:08;;;;;;;80.77;47.37;;;-3.90;99.90;;;;;;5082139;28;20052;-69
2021/12/22 09:15:33;;;;;;;79.03;49.17;;;-3.90;99.90;;;;;;5066446;28;20040;-69
2021/12/22 09:18:00;;;;;;;80.20;48.77;;;-3.80;99.90;;;;;;5079510;28;20067;-69
2021/12/22 09:20:26;;;;;;;76.37;46.83;;;-3.70;99.90;;;;;;5078183;28;20436;-69
2021/12/22 09:22:51;;;;;;;71.73;42.83;;;-3.70;99.90;;;;;;5083477;28;20044;-69
2021/12/22 09:25:17;;;;;;;76.77;46.60;;;-3.60;99.90;;;;;;5064345;28;20437;-71
2021/12/22 09:27:43;;;;;;;78.97;47.73;;;-3.50;99.90;;;;;;5059736;28;20733;-71
2021/12/22 09:30:09;;;;;;;72.70;47.43;;;-3.50;99.90;;;;;;5061774;28;20028;-71
2021/12/22 09:32:35;;;;;;;72.63;46.83;;;-3.40;99.90;;;;;;5058754;28;20047;-71
2021/12/22 09:35:00;;;;;;;79.67;47.80;;;-3.40;99.90;;;;;;5070077;28;20044;-71
2021/12/22 09:37:26;;;;;;;74.97;47.50;;;-3.40;99.90;;;;;;5065705;28;20413;-71
2021/12/22 09:39:53;;;;;;;76.57;48.23;;;-3.30;99.90;;;;;;5061717;28;20382;-71
2021/12/22 09:42:19;;;;;;;85.43;52.97;;;-3.20;99.90;;;;;;5075462;28;20127;-71
2021/12/22 09:44:46;;;;;;;89.93;49.97;;;-3.20;99.90;;;;;;5064222;28;20139;-72
2021/12/22 09:47:17;;;;;;;77.87;48.40;;;-3.10;99.90;;;;;;5064085;28;20048;-71
2021/12/22 09:52:23;;;;;;;82.03;48.93;;;-3.00;99.90;;;;;;5084445;28;20102;-72
2021/12/22 09:54:51;;;;;;;84.50;50.27;;;-2.90;99.90;;;;;;5056555;28;20059;-70
2021/12/22 09:57:18;;;;;;;;;;;-2.80;99.90;;;;;;5083249;28;20059;-70
2021/12/22 09:59:49;;;;;;;78.90;49.53;;;-2.80;99.90;;;;;;5060781;28;19923;-70
2021/12/22 10:02:16;;;;;;;78.15;49.95;;;-2.70;99.90;;;;;;5072852;28;20048;-70
2021/12/22 10:04:42;;;;;;;84.77;47.17;;;-2.70;99.90;;;;;;5086126;28;20044;-70
2021/12/22 10:07:15;;;;;;;68.83;46.20;;;-2.60;99.90;;;;;;5061524;28;20409;-70
2021/12/22 10:09:44;;;;;;;74.03;49.60;;;-2.50;99.90;;;;;;5082272;28;20047;-69
2021/12/22 10:12:39;;;;;;;79.90;49.45;;;-2.40;99.90;;;;;;5083281;28;20047;-69
2021/12/22 10:15:07;;;;;;;80.07;49.67;;;-2.40;99.90;;;;;;5049122;28;20052;-69
2021/12/22 10:17:39;;;;;;;77.18;50.25;;;-2.30;99.90;;;;;;5082904;28;20119;-69
2021/12/22 10:20:15;;;;;;;86.75;52.38;;;-2.30;99.90;;;;;;5064466;28;20477;-69
2021/12/22 10:22:47;;;;;;;82.47;51.05;;;-2.20;99.90;;;;;;5065514;28;20899;-69
2021/12/22 10:25:20;;;;;;;85.90;50.67;;;-2.10;99.90;;;;;;5081938;28;20036;-69
2021/12/22 10:28:18;;;;;;;94.47;51.58;;;-2.10;99.90;;;;;;5061019;28;20136;-69
2021/12/22 10:30:44;;;;;;;78.57;48.03;;;-2.00;99.90;;;;;;5048715;28;20080;-69
2021/12/22 10:33:17;;;;;;;79.60;49.05;;;-1.90;99.90;;;;;;5060190;28;20048;-69
2021/12/22 10:35:52;;;;;;;79.35;48.30;;;-1.80;99.90;;;;;;5059337;28;20140;-69
2021/12/22 10:38:24;;;;;;;73.10;46.08;;;-1.70;99.90;;;;;;5057038;28;20114;-69
2021/12/22 10:40:56;;;;;;;70.88;48.03;;;-1.60;99.90;;;;;;5062409;28;20523;-69
2021/12/22 10:43:28;;;;;;;68.40;47.88;;;-1.50;99.90;;;;;;5061198;28;20075;-69
2021/12/22 10:45:57;;;;;;;77.30;49.92;;;-1.50;99.90;;;;;;5057926;28;20556;-69
2021/12/22 10:51:26;;;;;;;70.43;45.28;;;-1.30;99.90;;;;;;5065621;28;20132;-69
2021/12/22 10:53:53;;;;;;;69.50;46.33;;;-1.20;99.90;;;;;;5063655;28;20053;-69
2021/12/22 10:56:30;;;;;;;66.05;45.03;;;-1.10;99.90;;;;;;5061287;28;20044;-70
2021/12/22 10:59:08;;;;;;;73.95;46.08;;;-1.00;99.90;;;;;;5066722;28;20059;-70
2021/12/22 11:01:36;;;;;;;66.77;44.47;;;-1.00;99.90;;;;;;5055443;28;20054;-70
2021/12/22 11:04:05;;;;;;;69.07;44.67;;;-0.90;99.90;;;;;;5048360;28;20123;-70
2021/12/22 11:06:33;;;;;;;61.58;41.08;;;-0.90;99.90;;;;;;5066557;28;20045;-70
2021/12/22 11:09:05;;;;;;;62.10;40.55;;;-0.80;99.90;;;;;;5065208;28;20494;-70
2021/12/22 11:11:37;;;;;;;69.68;42.13;;;-0.80;99.90;;;;;;5061000;28;20445;-70
2021/12/22 11:14:19;;;;;;;74.90;43.22;;;-0.80;99.90;;;;;;5056643;28;20750;-70
2021/12/22 11:16:52;;;;;;;64.28;41.20;;;-0.70;99.90;;;;;;5063116;28;20048;-70
2021/12/22 11:19:17;;;;;;;64.32;38.00;;;-0.70;99.90;;;;;;5064550;28;20040;-70
2021/12/22 11:22:15;;;;;;;60.83;37.70;;;-0.60;99.90;;;;;;5063388;28;20409;-70
2021/12/22 11:24:47;;;;;;;57.47;35.80;;;-0.50;99.90;;;;;;5057351;28;20078;-70
2021/12/22 11:27:23;;;;;;;51.25;35.03;;;-0.50;99.90;;;;;;5074250;28;20131;-70
2021/12/22 11:29:55;;;;;;;59.35;33.65;;;-0.40;99.90;;;;;;5069421;28;20044;-70
2021/12/22 11:32:22;;;;;;;49.42;31.42;;;-0.30;99.90;;;;;;5087216;28;20551;-70
2021/12/22 11:34:51;;;;;;;47.40;32.63;;;-0.30;99.90;;;;;;5070223;28;20101;-70
2021/12/22 11:37:18;;;;;;;49.28;31.27;;;-0.20;99.90;;;;;;5062707;28;20290;-70
2021/12/22 11:39:46;;;;;;;44.65;30.80;;;-0.10;99.90;;;;;;5086664;28;20051;-70
2021/12/22 11:42:13;;;;;;;46.30;29.55;;;-0.10;99.90;;;;;;5085103;28;20462;-70
2021/12/22 11:44:42;;;;;;;54.40;31.40;;;0.00;99.90;;;;;;5069054;28;20044;-69
2021/12/22 11:47:10;;;;;;;46.50;31.23;;;0.10;99.90;;;;;;5089880;28;20056;-70
2021/12/22 11:49:58;;;;;;;50.60;30.23;;;0.10;99.90;;;;;;5081795;28;20043;-70
2021/12/22 11:52:32;;;;;;;44.03;30.73;;;0.20;99.90;;;;;;5082376;28;20131;-71
2021/12/22 11:55:17;;;;;;;52.63;30.85;;;0.20;99.90;;;;;;5080351;28;20079;-71
2021/12/22 11:57:48;;;;;;;48.72;30.95;;;0.20;99.90;;;;;;5065034;28;20141;-71
2021/12/22 12:00:26;;;;;;;47.72;30.92;;;0.20;99.90;;;;;;5064297;28;20067;-71
2021/12/22 12:02:52;;;;;;;47.33;31.17;;;0.20;99.90;;;;;;5081651;28;20071;-71
2021/12/22 12:05:36;;;;;;;44.88;31.35;;;0.20;99.90;;;;;;5082894;28;20508;-71
2021/12/22 12:08:16;;;;;;;50.63;31.42;;;0.30;99.90;;;;;;5080069;28;20048;-71
2021/12/22 12:10:47;;;;;;;45.72;29.63;;;0.20;99.90;;;;;;5074011;28;20178;-71
2021/12/22 12:13:46;;;;;;;48.13;31.02;;;0.10;99.90;;;;;;5065699;28;20044;-71
2021/12/22 12:22:08;;;;;;;50.83;31.38;;;0.10;99.90;;;;;;5077681;28;20051;-71
2021/12/22 12:24:47;;;;;;;47.50;31.65;;;0.10;99.90;;;;;;5061175;28;20158;-71
2021/12/22 12:27:34;;;;;;;50.35;29.58;;;0.10;99.90;;;;;;5068472;28;20393;-71
2021/12/22 12:30:07;;;;;;;46.33;30.17;;;0.00;99.90;;;;;;5064867;28;20052;-71
2021/12/22 12:32:39;;;;;;;47.28;30.95;;;0.00;99.90;;;;;;5061650;28;20048;-71
2021/12/22 12:35:21;;;;;;;51.92;32.88;;;0.00;99.90;;;;;;5066311;28;20546;-71
2021/12/22 12:38:15;;;;;;;51.58;32.15;;;0.00;99.90;;;;;;5066282;28;20062;-71
2021/12/22 12:41:00;;;;;;;53.53;30.10;;;0.10;99.90;;;;;;5060739;28;20055;-71
2021/12/22 12:43:47;;;;;;;50.22;31.40;;;0.10;99.90;;;;;;5066764;28;20044;-71
2021/12/22 12:46:24;;;;;;;48.88;31.58;;;0.10;99.90;;;;;;5065363;28;20055;-71
2021/12/22 12:48:54;;;;;;;55.67;33.65;;;0.10;99.90;;;;;;5069188;28;20094;-71
2021/12/22 12:51:30;;;;;;;51.55;31.70;;;0.20;99.90;;;;;;5060119;28;20051;-71
2021/12/22 12:54:02;;;;;;;49.88;30.30;;;0.20;99.90;;;;;;5063694;28;20098;-71
2021/12/22 12:56:35;;;;;;;45.35;30.15;;;0.20;99.90;;;;;;5065193;28;20049;-71
2021/12/22 12:59:12;;;;;;;49.63;30.75;;;0.20;99.90;;;;;;5074698;28;20059;-71
2021/12/22 13:01:46;;;;;;;43.55;30.27;;;0.20;99.90;;;;;;5066090;28;20079;-71
2021/12/22 13:04:26;;;;;;;50.85;30.52;;;0.30;99.90;;;;;;5067152;28;20040;-71